createdAt,value
2022-12-03T00:02:37.937Z,99179.60
2022-12-03T00:05:49.061Z,99189.60
2022-12-03T00:08:58.809Z,99179.00
2022-12-03T00:12:09.397Z,99180.20
2022-12-03T00:15:19.454Z,99186.60
2022-12-03T00:18:28.809Z,99192.00
2022-12-03T00:21:38.703Z,99190.80
2022-12-03T00:24:49.068Z,99195.20
2022-12-03T00:27:58.514Z,99195.20
2022-12-03T00:31:07.833Z,99192.60
2022-12-03T00:34:16.668Z,99194.00
2022-12-03T00:37:25.848Z,99194.60
2022-12-03T00:40:35.919Z,99196.60
2022-12-03T00:43:46.102Z,99195.60
2022-12-03T00:46:56.349Z,99201.80
2022-12-03T00:50:06.710Z,99201.60
2022-12-03T00:53:15.903Z,99198.20
2022-12-03T00:56:25.337Z,99200.80
2022-12-03T00:59:33.237Z,99199.60
2022-12-03T01:02:44.837Z,99198.20
2022-12-03T01:05:54.622Z,99195.20
2022-12-03T01:09:01.778Z,99192.20
2022-12-03T01:12:12.203Z,99186.20
2022-12-03T01:15:22.587Z,99186.20
2022-12-03T01:18:31.702Z,99192.20
2022-12-03T01:21:41.507Z,99191.60
2022-12-03T01:24:50.985Z,99192.00
2022-12-03T01:28:01.601Z,99188.60
2022-12-03T01:31:28.123Z,99187.40
2022-12-03T01:34:37.562Z,99197.60
2022-12-03T01:37:48.558Z,99190.80
2022-12-03T01:40:58.384Z,99197.20
2022-12-03T01:44:15.049Z,99198.00
2022-12-03T01:47:28.947Z,99203.40
2022-12-03T01:50:38.797Z,99205.00
2022-12-03T01:53:47.646Z,99198.00
2022-12-03T01:56:58.332Z,99205.60
2022-12-03T02:00:09.195Z,99193.00
2022-12-03T02:03:24.585Z,99193.60
2022-12-03T02:06:34.807Z,99194.00
2022-12-03T02:09:45.205Z,99198.80
2022-12-03T02:12:59.931Z,99193.40
2022-12-03T02:16:10.490Z,99190.80
2022-12-03T02:19:27.299Z,99185.80
2022-12-03T02:22:45.698Z,99188.00
2022-12-03T02:25:55.818Z,99187.60
2022-12-03T02:29:05.572Z,99191.80
2022-12-03T02:32:15.937Z,99188.80
2022-12-03T02:35:27.659Z,99185.40
2022-12-03T02:38:39.239Z,99187.20
2022-12-03T02:42:01.779Z,99186.60
2022-12-03T02:45:16.803Z,99184.40
2022-12-03T02:48:31.196Z,99196.60
2022-12-03T02:51:40.940Z,99190.60
2022-12-03T02:54:50.519Z,99204.80
2022-12-03T02:58:00.125Z,99202.00
2022-12-03T03:01:11.883Z,99195.60
2022-12-03T03:04:20.696Z,99194.80
2022-12-03T03:07:29.422Z,99189.00
2022-12-03T03:10:41.018Z,99189.00
2022-12-03T03:13:50.925Z,99189.60
2022-12-03T03:17:00.925Z,99196.20
2022-12-03T03:20:14.361Z,99198.40
2022-12-03T03:23:25.848Z,99198.00
2022-12-03T03:26:34.959Z,99197.00
2022-12-03T03:29:44.010Z,99203.60
2022-12-03T03:32:53.545Z,99199.00
2022-12-03T03:36:03.773Z,99197.60
2022-12-03T03:39:11.399Z,99195.80
2022-12-03T03:42:20.769Z,99196.60
2022-12-03T03:45:31.052Z,99192.60
2022-12-03T03:48:42.055Z,99202.20
2022-12-03T03:51:51.520Z,99202.60
2022-12-03T03:55:01.228Z,99196.40
2022-12-03T03:58:11.233Z,99196.00
2022-12-03T04:01:21.300Z,99202.60
2022-12-03T04:04:38.214Z,99197.20
2022-12-03T04:07:47.093Z,99202.00
2022-12-03T04:11:13.265Z,99198.40
2022-12-03T04:14:22.294Z,99195.00
2022-12-03T04:17:31.141Z,99196.60
2022-12-03T04:20:40.841Z,99196.60
2022-12-03T04:23:49.803Z,99196.60
2022-12-03T04:27:16.675Z,99200.40
2022-12-03T04:30:25.321Z,99200.20
2022-12-03T04:33:59.845Z,99193.00
2022-12-03T04:37:09.032Z,99188.80
2022-12-03T04:40:38.644Z,99190.60
2022-12-03T04:44:01.441Z,99191.40
2022-12-03T04:47:16.690Z,99192.20
2022-12-03T04:50:27.037Z,99194.00
2022-12-03T04:53:36.399Z,99202.60
2022-12-03T04:56:47.040Z,99211.60
2022-12-03T04:59:56.890Z,99208.00
2022-12-03T05:03:04.312Z,99202.80
2022-12-03T05:06:14.167Z,99210.80
2022-12-03T05:09:23.445Z,99210.40
2022-12-03T05:12:32.254Z,99216.80
2022-12-03T05:15:40.935Z,99219.20
2022-12-03T05:18:50.176Z,99224.00
2022-12-03T05:21:59.304Z,99228.60
2022-12-03T05:25:09.951Z,99232.40
2022-12-03T05:28:19.729Z,99237.80
2022-12-03T05:31:29.182Z,99235.60
2022-12-03T05:34:39.244Z,99226.80
2022-12-03T05:37:47.735Z,99223.80
2022-12-03T05:40:56.632Z,99219.20
2022-12-03T05:44:05.181Z,99221.40
2022-12-03T05:47:13.487Z,99221.20
2022-12-03T05:50:24.137Z,99224.20
2022-12-03T05:53:34.473Z,99227.20
2022-12-03T05:56:44.388Z,99235.40
2022-12-03T05:59:54.241Z,99247.00
2022-12-03T06:03:02.151Z,99251.40
2022-12-03T06:06:11.660Z,99252.40
2022-12-03T06:09:20.687Z,99244.80
2022-12-03T06:12:30.293Z,99240.00
2022-12-03T06:15:43.550Z,99241.20
2022-12-03T06:18:54.365Z,99234.40
2022-12-03T06:22:03.372Z,99227.80
2022-12-03T06:25:13.939Z,99228.00
2022-12-03T06:28:22.981Z,99221.60
2022-12-03T06:31:32.804Z,99221.60
2022-12-03T06:34:40.279Z,99220.40
2022-12-03T06:37:48.702Z,99224.60
2022-12-03T06:40:57.584Z,99228.80
2022-12-03T06:44:06.118Z,99229.00
2022-12-03T06:47:14.498Z,99232.40
2022-12-03T06:50:22.720Z,99235.80
2022-12-03T06:53:30.824Z,99236.80
2022-12-03T06:56:44.848Z,99252.40
2022-12-03T06:59:54.943Z,99256.20
2022-12-03T07:03:04.188Z,99260.20
2022-12-03T07:06:13.802Z,99257.80
2022-12-03T07:09:22.554Z,99255.80
2022-12-03T07:12:33.173Z,99257.60
2022-12-03T07:15:42.814Z,99254.00
2022-12-03T07:18:52.525Z,99247.80
2022-12-03T07:22:01.710Z,99245.40
2022-12-03T07:25:15.769Z,99256.60
2022-12-03T07:28:30.539Z,99246.00
2022-12-03T07:31:40.206Z,99247.60
2022-12-03T07:34:48.862Z,99249.40
2022-12-03T07:37:57.942Z,99253.00
2022-12-03T07:41:06.453Z,99252.40
2022-12-03T07:44:15.347Z,99251.60
2022-12-03T07:47:23.892Z,99263.00
2022-12-03T07:50:32.567Z,99260.20
2022-12-03T07:53:42.016Z,99258.00
2022-12-03T07:56:57.968Z,99259.20
2022-12-03T08:00:12.315Z,99259.20
2022-12-03T08:03:20.507Z,99264.00
2022-12-03T08:06:28.604Z,99265.20
2022-12-03T08:09:36.785Z,99259.60
2022-12-03T08:12:44.698Z,99261.00
2022-12-03T08:15:53.423Z,99261.20
2022-12-03T08:19:14.761Z,99260.20
2022-12-03T08:22:24.221Z,99252.80
2022-12-03T08:25:36.143Z,99256.80
2022-12-03T08:28:45.511Z,99255.00
2022-12-03T08:31:57.893Z,99255.40
2022-12-03T08:35:15.226Z,99258.80
2022-12-03T08:38:28.012Z,99260.60
2022-12-03T08:41:55.944Z,99256.20
2022-12-03T08:45:40.067Z,99257.20
2022-12-03T08:48:49.709Z,99260.60
2022-12-03T08:52:35.505Z,99269.00
2022-12-03T08:59:16.778Z,99282.80
2022-12-03T09:02:35.297Z,99281.80
2022-12-03T09:08:56.819Z,99276.00
2022-12-03T09:12:06.294Z,99269.40
2022-12-03T09:15:16.587Z,99265.20
2022-12-03T09:18:24.479Z,99259.60
2022-12-03T09:21:32.791Z,99261.20
2022-12-03T09:24:41.368Z,99255.40
2022-12-03T09:27:50.032Z,99256.80
2022-12-03T09:30:59.027Z,99252.80
2022-12-03T09:34:08.263Z,99249.80
2022-12-03T09:37:16.685Z,99254.00
2022-12-03T09:40:26.163Z,99248.80
2022-12-03T09:44:03.256Z,99249.60
2022-12-03T09:47:08.035Z,99245.80
2022-12-03T09:50:21.099Z,99245.40
2022-12-03T09:53:34.568Z,99234.80
2022-12-03T09:56:47.434Z,99234.60
2022-12-03T09:59:56.040Z,99227.20
2022-12-03T10:03:09.522Z,99227.20
2022-12-03T10:06:23.434Z,99220.40
2022-12-03T10:09:33.632Z,99222.40
2022-12-03T10:12:42.068Z,99220.80
2022-12-03T10:15:51.007Z,99218.40
2022-12-03T10:19:02.938Z,99219.20
2022-12-03T10:22:11.678Z,99212.60
2022-12-03T10:25:23.677Z,99211.40
2022-12-03T10:28:49.526Z,99216.00
2022-12-03T10:32:05.894Z,99208.20
2022-12-03T10:35:17.533Z,99207.40
2022-12-03T10:38:26.661Z,99204.80
2022-12-03T10:41:34.936Z,99203.60
2022-12-03T10:44:43.823Z,99203.60
2022-12-03T10:48:13.488Z,99190.60
2022-12-03T10:51:24.449Z,99186.00
2022-12-03T10:54:37.264Z,99184.80
2022-12-03T10:57:52.493Z,99173.80
2022-12-03T11:01:04.294Z,99171.60
2022-12-03T11:04:23.224Z,99174.40
2022-12-03T11:07:32.686Z,99178.60
2022-12-03T11:10:41.464Z,99179.40
2022-12-03T11:14:05.263Z,99172.20
2022-12-03T11:17:13.988Z,99180.20
2022-12-03T11:21:13.113Z,99171.00
2022-12-03T11:24:34.268Z,99166.00
2022-12-03T11:27:45.386Z,99164.60
2022-12-03T11:31:31.694Z,99164.20
2022-12-03T11:34:47.783Z,99163.60
2022-12-03T11:37:57.070Z,99160.60
2022-12-03T11:41:17.954Z,99157.20
2022-12-03T11:44:37.835Z,99157.40
2022-12-03T11:47:49.105Z,99154.80
2022-12-03T11:50:58.916Z,99155.00
2022-12-03T11:54:07.933Z,99152.60
2022-12-03T11:57:36.168Z,99146.80
2022-12-03T12:00:55.911Z,99134.60
2022-12-03T12:04:03.532Z,99131.00
2022-12-03T12:07:12.326Z,99125.60
2022-12-03T12:10:46.333Z,99129.60
2022-12-03T12:14:00.965Z,99135.00
2022-12-03T12:17:37.218Z,99119.60
2022-12-03T12:20:45.998Z,99121.60
2022-12-03T12:23:55.657Z,99113.20
2022-12-03T12:27:07.026Z,99106.80
2022-12-03T12:30:20.564Z,99108.20
2022-12-03T12:33:30.884Z,99104.40
2022-12-03T12:36:41.040Z,99113.00
2022-12-03T12:39:50.124Z,99112.80
2022-12-03T12:43:05.323Z,99112.60
2022-12-03T12:46:46.734Z,99111.00
2022-12-03T12:49:51.684Z,99109.00
2022-12-03T12:53:13.194Z,99114.60
2022-12-03T12:56:31.138Z,99111.80
2022-12-03T12:59:39.440Z,99107.80
2022-12-03T13:02:54.359Z,99101.60
2022-12-03T13:06:04.412Z,99099.20
2022-12-03T13:09:20.316Z,99101.00
2022-12-03T13:12:30.264Z,99093.80
2022-12-03T13:15:49.974Z,99098.80
2022-12-03T13:19:01.110Z,99096.60
2022-12-03T13:22:20.626Z,99099.60
2022-12-03T13:29:15.375Z,99097.60
2022-12-03T13:32:31.020Z,99109.60
2022-12-03T13:35:41.832Z,99108.60
2022-12-03T13:38:51.586Z,99099.80
2022-12-03T13:42:20.742Z,99094.00
2022-12-03T13:45:39.861Z,99101.40
2022-12-03T13:48:48.483Z,99105.60
2022-12-03T13:51:57.151Z,99113.60
2022-12-03T13:55:13.404Z,99109.20
2022-12-03T13:58:21.629Z,99112.60
2022-12-03T14:01:30.594Z,99104.20
2022-12-03T14:04:39.076Z,99100.00
2022-12-03T14:07:48.109Z,99095.00
2022-12-03T14:11:00.330Z,99100.40
2022-12-03T14:14:09.386Z,99094.00
2022-12-03T14:17:17.875Z,99102.40
2022-12-03T14:20:26.750Z,99099.80
2022-12-03T14:23:35.117Z,99100.80
2022-12-03T14:26:44.369Z,99106.00
2022-12-03T14:29:53.373Z,99111.80
2022-12-03T14:33:01.109Z,99104.40
2022-12-03T14:36:11.258Z,99102.00
2022-12-03T14:39:20.700Z,99099.00
2022-12-03T14:42:29.598Z,99104.40
2022-12-03T14:45:38.436Z,99100.80
2022-12-03T14:48:46.695Z,99101.40
2022-12-03T14:51:55.589Z,99101.60
2022-12-03T14:55:04.515Z,99098.00
2022-12-03T14:58:13.033Z,99098.80
2022-12-03T15:01:22.159Z,99096.40
2022-12-03T15:04:29.886Z,99094.40
2022-12-03T15:07:40.227Z,99094.20
2022-12-03T15:10:52.521Z,99101.80
2022-12-03T15:14:01.771Z,99113.20
2022-12-03T15:17:10.648Z,99112.60
2022-12-03T15:20:19.660Z,99114.60
2022-12-03T15:23:28.029Z,99114.40
2022-12-03T15:26:37.091Z,99121.60
2022-12-03T15:29:45.735Z,99129.20
2022-12-03T15:32:54.386Z,99128.80
2022-12-03T15:36:02.946Z,99134.00
2022-12-03T15:39:11.271Z,99131.60
2022-12-03T15:42:19.308Z,99130.40
2022-12-03T15:45:27.768Z,99129.40
2022-12-03T15:48:36.307Z,99123.60
2022-12-03T15:51:44.971Z,99126.60
2022-12-03T15:54:55.584Z,99122.80
2022-12-03T15:58:03.435Z,99120.80
2022-12-03T16:01:13.685Z,99124.20
2022-12-03T16:04:22.865Z,99127.40
2022-12-03T16:07:30.942Z,99127.20
2022-12-03T16:10:38.916Z,99124.80
2022-12-03T16:13:47.105Z,99126.00
2022-12-03T16:16:55.574Z,99128.00
2022-12-03T16:20:03.517Z,99130.20
2022-12-03T16:23:11.369Z,99135.00
2022-12-03T16:26:19.801Z,99140.20
2022-12-03T16:29:28.587Z,99134.40
2022-12-03T16:32:36.808Z,99133.40
2022-12-03T16:35:44.647Z,99126.60
2022-12-03T16:38:52.608Z,99124.40
2022-12-03T16:42:00.408Z,99123.20
2022-12-03T16:45:33.955Z,99119.00
2022-12-03T16:48:42.482Z,99109.60
2022-12-03T16:51:50.446Z,99104.60
2022-12-03T16:54:58.670Z,99108.00
2022-12-03T16:58:06.597Z,99106.40
2022-12-03T17:01:15.730Z,99110.60
2022-12-03T17:04:23.845Z,99115.20
2022-12-03T17:07:31.904Z,99120.40
2022-12-03T17:10:40.051Z,99126.20
2022-12-03T17:13:48.253Z,99129.60
2022-12-03T17:16:56.312Z,99126.80
2022-12-03T17:20:06.473Z,99119.00
2022-12-03T17:23:15.136Z,99125.80
2022-12-03T17:26:23.401Z,99121.60
2022-12-03T17:29:31.722Z,99117.40
2022-12-03T17:32:41.767Z,99117.20
2022-12-03T17:35:49.651Z,99108.60
2022-12-03T17:38:59.019Z,99106.60
2022-12-03T17:42:07.288Z,99104.80
2022-12-03T17:45:16.962Z,99103.20
2022-12-03T17:48:25.180Z,99102.20
2022-12-03T17:51:33.364Z,99102.80
2022-12-03T17:55:02.363Z,99105.00
2022-12-03T17:58:09.304Z,99101.00
2022-12-03T18:01:18.650Z,99111.00
2022-12-03T18:04:26.855Z,99113.40
2022-12-03T18:07:35.206Z,99115.80
2022-12-03T18:10:43.447Z,99117.20
2022-12-03T18:13:51.340Z,99112.80
2022-12-03T18:16:59.224Z,99114.20
2022-12-03T18:20:08.906Z,99120.20
2022-12-03T18:23:18.526Z,99113.60
2022-12-03T18:26:27.678Z,99118.80
2022-12-03T18:29:35.816Z,99120.80
2022-12-03T18:32:43.993Z,99118.40
2022-12-03T18:35:56.690Z,99119.80
2022-12-03T18:39:09.727Z,99115.00
2022-12-03T18:42:21.945Z,99115.80
2022-12-03T18:45:30.972Z,99119.00
2022-12-03T18:48:41.079Z,99119.20
2022-12-03T18:51:57.494Z,99128.60
2022-12-03T18:55:12.918Z,99123.60
2022-12-03T18:58:21.594Z,99132.60
2022-12-03T19:01:31.438Z,99133.40
2022-12-03T19:04:38.183Z,99145.20
2022-12-03T19:07:46.916Z,99141.80
2022-12-03T19:11:02.490Z,99139.40
2022-12-03T19:14:11.222Z,99144.00
2022-12-03T19:17:19.605Z,99132.60
2022-12-03T19:20:27.644Z,99127.60
2022-12-03T19:23:36.141Z,99132.40
2022-12-03T19:26:44.705Z,99135.40
2022-12-03T19:29:57.556Z,99137.60
2022-12-03T19:33:06.262Z,99138.60
2022-12-03T19:36:27.374Z,99135.00
2022-12-03T19:39:36.043Z,99151.80
2022-12-03T19:42:44.407Z,99156.60
2022-12-03T19:45:53.799Z,99157.40
2022-12-03T19:49:03.473Z,99157.00
2022-12-03T19:52:12.341Z,99158.60
2022-12-03T19:55:21.678Z,99164.20
2022-12-03T19:58:33.026Z,99167.80
2022-12-03T20:01:43.588Z,99166.80
2022-12-03T20:04:52.353Z,99167.00
2022-12-03T20:08:00.506Z,99165.40
2022-12-03T20:11:17.156Z,99169.80
2022-12-03T20:14:26.175Z,99167.40
2022-12-03T20:17:35.784Z,99162.20
2022-12-03T20:20:45.064Z,99161.40
2022-12-03T20:23:52.987Z,99163.40
2022-12-03T20:27:00.957Z,99162.40
2022-12-03T20:30:12.272Z,99160.60
2022-12-03T20:33:21.483Z,99161.40
2022-12-03T20:36:32.286Z,99158.40
2022-12-03T20:39:40.767Z,99157.80
2022-12-03T20:42:51.349Z,99162.20
2022-12-03T20:46:06.977Z,99156.40
2022-12-03T20:49:15.246Z,99159.60
2022-12-03T20:52:23.852Z,99161.40
2022-12-03T20:55:31.757Z,99164.60
2022-12-03T20:58:40.056Z,99159.00
2022-12-03T21:01:48.368Z,99155.00
2022-12-03T21:04:57.017Z,99154.20
2022-12-03T21:08:05.078Z,99154.00
2022-12-03T21:11:15.518Z,99159.60
2022-12-03T21:14:23.571Z,99157.60
2022-12-03T21:17:31.531Z,99160.20
2022-12-03T21:20:45.872Z,99158.80
2022-12-03T21:23:54.478Z,99159.00
2022-12-03T21:27:03.756Z,99148.60
2022-12-03T21:30:16.060Z,99148.40
2022-12-03T21:33:24.324Z,99147.20
2022-12-03T21:36:32.915Z,99154.20
2022-12-03T21:39:41.706Z,99156.00
2022-12-03T21:42:52.701Z,99146.20
2022-12-03T21:46:01.587Z,99145.40
2022-12-03T21:49:10.916Z,99153.40
2022-12-03T21:52:19.351Z,99145.00
2022-12-03T21:55:28.274Z,99144.00
2022-12-03T21:58:37.566Z,99142.20
2022-12-03T22:01:47.472Z,99143.00
2022-12-03T22:04:56.423Z,99146.20
2022-12-03T22:08:04.698Z,99144.80
2022-12-03T22:11:17.900Z,99142.80
2022-12-03T22:14:25.978Z,99141.80
2022-12-03T22:17:36.218Z,99142.00
2022-12-03T22:20:46.141Z,99140.00
2022-12-03T22:23:52.291Z,99136.00
2022-12-03T22:27:00.942Z,99133.60
2022-12-03T22:30:11.472Z,99141.40
2022-12-03T22:33:19.727Z,99138.20
2022-12-03T22:36:27.686Z,99132.40
2022-12-03T22:39:35.793Z,99131.60
2022-12-03T22:42:49.350Z,99129.60
2022-12-03T22:45:59.166Z,99121.20
2022-12-03T22:49:07.916Z,99125.60
2022-12-03T22:52:15.725Z,99130.60
2022-12-03T22:55:23.792Z,99125.80
2022-12-03T22:58:32.627Z,99123.00
2022-12-03T23:01:43.105Z,99123.40
2022-12-03T23:04:50.987Z,99123.20
2022-12-03T23:07:58.940Z,99125.20
2022-12-03T23:11:07.450Z,99123.40
2022-12-03T23:14:15.526Z,99120.00
2022-12-03T23:17:23.301Z,99115.20
2022-12-03T23:20:31.762Z,99111.80
2022-12-03T23:23:39.465Z,99114.60
2022-12-03T23:26:47.645Z,99115.20
2022-12-03T23:29:55.860Z,99117.00
2022-12-03T23:33:04.143Z,99111.60
2022-12-03T23:36:13.440Z,99109.20
2022-12-03T23:39:21.234Z,99102.20
2022-12-03T23:42:29.193Z,99098.20
2022-12-03T23:45:38.187Z,99101.00
2022-12-03T23:48:47.006Z,99097.00
2022-12-03T23:51:54.880Z,99098.20
2022-12-03T23:55:02.675Z,99100.00
2022-12-03T23:58:10.871Z,99107.60
